sensor_id;sensor_type;location;lat;lon;timestamp;P1;durP1;ratioP1;P2;durP2;ratioP2
71464;SDS011;59274;49.874;9.154;2022-12-07T00:01:06;13.27;;;5.85;;
71464;SDS011;59274;49.874;9.154;2022-12-07T00:03:32;12.50;;;5.97;;
71464;SDS011;59274;49.874;9.154;2022-12-07T00:05:58;15.47;;;6.47;;
71464;SDS011;59274;49.874;9.154;2022-12-07T00:08:23;15.45;;;6.88;;
71464;SDS011;59274;49.874;9.154;2022-12-07T00:10:49;12.77;;;5.60;;
71464;SDS011;59274;49.874;9.154;2022-12-07T00:13:14;15.35;;;6.38;;
71464;SDS011;59274;49.874;9.154;2022-12-07T00:15:40;16.20;;;6.50;;
71464;SDS011;59274;49.874;9.154;2022-12-07T00:18:05;16.57;;;7.10;;
71464;SDS011;59274;49.874;9.154;2022-12-07T00:20:31;15.75;;;6.93;;
71464;SDS011;59274;49.874;9.154;2022-12-07T00:22:56;15.02;;;6.78;;
71464;SDS011;59274;49.874;9.154;2022-12-07T00:25:22;16.53;;;6.77;;
71464;SDS011;59274;49.874;9.154;2022-12-07T00:27:47;14.63;;;6.33;;
71464;SDS011;59274;49.874;9.154;2022-12-07T00:30:13;15.23;;;6.40;;
71464;SDS011;59274;49.874;9.154;2022-12-07T00:32:39;14.27;;;6.33;;
71464;SDS011;59274;49.874;9.154;2022-12-07T00:35:04;17.23;;;6.27;;
71464;SDS011;59274;49.874;9.154;2022-12-07T00:37:30;17.77;;;6.82;;
71464;SDS011;59274;49.874;9.154;2022-12-07T00:39:55;17.20;;;7.03;;
71464;SDS011;59274;49.874;9.154;2022-12-07T00:42:20;15.03;;;6.93;;
71464;SDS011;59274;49.874;9.154;2022-12-07T00:44:46;16.10;;;6.43;;
71464;SDS011;59274;49.874;9.154;2022-12-07T00:47:11;16.47;;;6.77;;
71464;SDS011;59274;49.874;9.154;2022-12-07T00:49:37;19.02;;;7.40;;
71464;SDS011;59274;49.874;9.154;2022-12-07T00:52:02;13.50;;;6.45;;
71464;SDS011;59274;49.874;9.154;2022-12-07T00:54:28;16.97;;;6.17;;
71464;SDS011;59274;49.874;9.154;2022-12-07T00:56:53;16.20;;;6.33;;
71464;SDS011;59274;49.874;9.154;2022-12-07T00:59:19;17.45;;;7.10;;
71464;SDS011;59274;49.874;9.154;2022-12-07T01:01:44;16.47;;;6.67;;
71464;SDS011;59274;49.874;9.154;2022-12-07T01:04:09;17.07;;;6.97;;
71464;SDS011;59274;49.874;9.154;2022-12-07T01:06:35;17.07;;;6.80;;
71464;SDS011;59274;49.874;9.154;2022-12-07T01:09:00;14.63;;;6.90;;
71464;SDS011;59274;49.874;9.154;2022-12-07T01:11:29;16.13;;;7.03;;
71464;SDS011;59274;49.874;9.154;2022-12-07T01:13:55;15.30;;;7.13;;
71464;SDS011;59274;49.874;9.154;2022-12-07T01:16:23;17.30;;;7.00;;
71464;SDS011;59274;49.874;9.154;2022-12-07T01:18:50;13.90;;;6.37;;
71464;SDS011;59274;49.874;9.154;2022-12-07T01:21:18;14.73;;;6.38;;
71464;SDS011;59274;49.874;9.154;2022-12-07T01:23:48;16.92;;;7.10;;
71464;SDS011;59274;49.874;9.154;2022-12-07T01:26:15;14.02;;;6.25;;
71464;SDS011;59274;49.874;9.154;2022-12-07T01:28:42;15.15;;;6.30;;
71464;SDS011;59274;49.874;9.154;2022-12-07T01:31:09;16.77;;;7.30;;
71464;SDS011;59274;49.874;9.154;2022-12-07T01:33:37;16.20;;;6.90;;
71464;SDS011;59274;49.874;9.154;2022-12-07T01:36:08;17.38;;;6.32;;
71464;SDS011;59274;49.874;9.154;2022-12-07T01:38:43;18.23;;;6.80;;
71464;SDS011;59274;49.874;9.154;2022-12-07T01:41:09;14.43;;;6.27;;
71464;SDS011;59274;49.874;9.154;2022-12-07T01:43:35;14.40;;;6.18;;
71464;SDS011;59274;49.874;9.154;2022-12-07T01:46:02;15.43;;;6.63;;
71464;SDS011;59274;49.874;9.154;2022-12-07T01:48:33;16.17;;;6.72;;
71464;SDS011;59274;49.874;9.154;2022-12-07T01:51:04;14.93;;;6.47;;
71464;SDS011;59274;49.874;9.154;2022-12-07T01:53:34;16.30;;;6.93;;
71464;SDS011;59274;49.874;9.154;2022-12-07T01:56:02;14.23;;;6.18;;
71464;SDS011;59274;49.874;9.154;2022-12-07T01:58:28;15.40;;;6.55;;
71464;SDS011;59274;49.874;9.154;2022-12-07T02:00:54;15.43;;;6.43;;
71464;SDS011;59274;49.874;9.154;2022-12-07T02:03:22;17.63;;;7.23;;
71464;SDS011;59274;49.874;9.154;2022-12-07T02:05:52;17.85;;;6.82;;
71464;SDS011;59274;49.874;9.154;2022-12-07T02:08:19;16.33;;;6.25;;
71464;SDS011;59274;49.874;9.154;2022-12-07T02:10:45;14.52;;;6.43;;
71464;SDS011;59274;49.874;9.154;2022-12-07T02:13:24;16.27;;;6.43;;
71464;SDS011;59274;49.874;9.154;2022-12-07T02:16:00;17.02;;;7.25;;
71464;SDS011;59274;49.874;9.154;2022-12-07T02:18:36;16.23;;;6.50;;
71464;SDS011;59274;49.874;9.154;2022-12-07T02:29:27;15.60;;;6.20;;
71464;SDS011;59274;49.874;9.154;2022-12-07T02:32:27;15.70;;;6.57;;
71464;SDS011;59274;49.874;9.154;2022-12-07T02:35:09;15.23;;;6.07;;
71464;SDS011;59274;49.874;9.154;2022-12-07T02:37:43;17.98;;;6.78;;
71464;SDS011;59274;49.874;9.154;2022-12-07T02:40:41;15.57;;;6.47;;
71464;SDS011;59274;49.874;9.154;2022-12-07T02:43:19;16.15;;;7.13;;
71464;SDS011;59274;49.874;9.154;2022-12-07T02:45:49;16.70;;;6.80;;
71464;SDS011;59274;49.874;9.154;2022-12-07T02:48:17;15.23;;;6.47;;
71464;SDS011;59274;49.874;9.154;2022-12-07T02:50:51;14.10;;;6.18;;
71464;SDS011;59274;49.874;9.154;2022-12-07T02:53:31;14.57;;;6.38;;
71464;SDS011;59274;49.874;9.154;2022-12-07T02:56:00;14.07;;;6.13;;
71464;SDS011;59274;49.874;9.154;2022-12-07T02:58:33;13.95;;;6.57;;
71464;SDS011;59274;49.874;9.154;2022-12-07T03:01:26;15.10;;;6.57;;
71464;SDS011;59274;49.874;9.154;2022-12-07T03:03:58;14.88;;;6.60;;
71464;SDS011;59274;49.874;9.154;2022-12-07T03:06:36;17.77;;;6.78;;
71464;SDS011;59274;49.874;9.154;2022-12-07T03:09:14;18.48;;;7.35;;
71464;SDS011;59274;49.874;9.154;2022-12-07T03:11:48;15.73;;;6.63;;
71464;SDS011;59274;49.874;9.154;2022-12-07T03:14:24;16.97;;;6.73;;
71464;SDS011;59274;49.874;9.154;2022-12-07T03:17:14;14.35;;;6.15;;
71464;SDS011;59274;49.874;9.154;2022-12-07T03:19:44;15.93;;;6.88;;
71464;SDS011;59274;49.874;9.154;2022-12-07T03:22:14;18.00;;;7.15;;
71464;SDS011;59274;49.874;9.154;2022-12-07T03:24:43;16.02;;;6.95;;
71464;SDS011;59274;49.874;9.154;2022-12-07T03:27:16;15.90;;;6.53;;
71464;SDS011;59274;49.874;9.154;2022-12-07T03:33:03;17.73;;;7.00;;
71464;SDS011;59274;49.874;9.154;2022-12-07T03:35:33;15.25;;;6.28;;
71464;SDS011;59274;49.874;9.154;2022-12-07T03:38:17;18.13;;;6.97;;
71464;SDS011;59274;49.874;9.154;2022-12-07T03:41:06;17.63;;;6.80;;
71464;SDS011;59274;49.874;9.154;2022-12-07T03:43:37;15.05;;;6.60;;
71464;SDS011;59274;49.874;9.154;2022-12-07T03:56:41;16.85;;;6.75;;
71464;SDS011;59274;49.874;9.154;2022-12-07T03:59:08;16.50;;;6.78;;
71464;SDS011;59274;49.874;9.154;2022-12-07T04:01:35;16.90;;;7.32;;
71464;SDS011;59274;49.874;9.154;2022-12-07T04:04:01;15.77;;;6.90;;
71464;SDS011;59274;49.874;9.154;2022-12-07T04:06:26;18.43;;;7.70;;
71464;SDS011;59274;49.874;9.154;2022-12-07T04:08:52;16.47;;;7.00;;
71464;SDS011;59274;49.874;9.154;2022-12-07T04:11:17;17.05;;;7.47;;
71464;SDS011;59274;49.874;9.154;2022-12-07T04:13:42;16.80;;;6.78;;
71464;SDS011;59274;49.874;9.154;2022-12-07T04:16:27;17.53;;;7.40;;
71464;SDS011;59274;49.874;9.154;2022-12-07T04:18:52;18.25;;;7.07;;
71464;SDS011;59274;49.874;9.154;2022-12-07T04:21:17;15.63;;;7.60;;
71464;SDS011;59274;49.874;9.154;2022-12-07T04:23:43;17.93;;;7.43;;
71464;SDS011;59274;49.874;9.154;2022-12-07T04:26:08;15.80;;;7.47;;
71464;SDS011;59274;49.874;9.154;2022-12-07T04:28:34;17.73;;;8.23;;
71464;SDS011;59274;49.874;9.154;2022-12-07T04:30:59;16.77;;;7.32;;
71464;SDS011;59274;49.874;9.154;2022-12-07T04:33:24;15.25;;;6.97;;
71464;SDS011;59274;49.874;9.154;2022-12-07T04:35:50;18.00;;;7.67;;
71464;SDS011;59274;49.874;9.154;2022-12-07T04:38:15;16.27;;;6.83;;
71464;SDS011;59274;49.874;9.154;2022-12-07T04:40:41;19.83;;;8.43;;
71464;SDS011;59274;49.874;9.154;2022-12-07T04:43:06;17.23;;;8.03;;
71464;SDS011;59274;49.874;9.154;2022-12-07T04:45:31;17.75;;;7.63;;
71464;SDS011;59274;49.874;9.154;2022-12-07T04:47:57;16.50;;;6.90;;
71464;SDS011;59274;49.874;9.154;2022-12-07T04:50:22;16.97;;;7.37;;
71464;SDS011;59274;49.874;9.154;2022-12-07T04:52:47;17.97;;;7.67;;
71464;SDS011;59274;49.874;9.154;2022-12-07T04:55:13;17.47;;;6.73;;
71464;SDS011;59274;49.874;9.154;2022-12-07T04:57:38;15.43;;;7.00;;
71464;SDS011;59274;49.874;9.154;2022-12-07T05:00:04;14.02;;;6.50;;
71464;SDS011;59274;49.874;9.154;2022-12-07T05:02:30;16.57;;;6.67;;
71464;SDS011;59274;49.874;9.154;2022-12-07T05:04:55;16.67;;;6.90;;
71464;SDS011;59274;49.874;9.154;2022-12-07T05:07:21;15.20;;;6.73;;
71464;SDS011;59274;49.874;9.154;2022-12-07T05:09:46;16.27;;;7.37;;
71464;SDS011;59274;49.874;9.154;2022-12-07T05:12:12;19.40;;;7.90;;
71464;SDS011;59274;49.874;9.154;2022-12-07T05:14:37;16.47;;;7.00;;
71464;SDS011;59274;49.874;9.154;2022-12-07T05:17:02;14.70;;;6.15;;
71464;SDS011;59274;49.874;9.154;2022-12-07T05:19:29;17.42;;;6.53;;
71464;SDS011;59274;49.874;9.154;2022-12-07T05:21:54;16.05;;;7.22;;
71464;SDS011;59274;49.874;9.154;2022-12-07T05:24:20;16.30;;;7.10;;
71464;SDS011;59274;49.874;9.154;2022-12-07T05:26:45;17.80;;;7.03;;
71464;SDS011;59274;49.874;9.154;2022-12-07T05:29:12;14.10;;;6.30;;
71464;SDS011;59274;49.874;9.154;2022-12-07T05:31:39;17.52;;;7.60;;
71464;SDS011;59274;49.874;9.154;2022-12-07T05:34:04;16.93;;;6.97;;
71464;SDS011;59274;49.874;9.154;2022-12-07T05:36:30;13.77;;;5.93;;
71464;SDS011;59274;49.874;9.154;2022-12-07T05:38:56;13.98;;;6.07;;
71464;SDS011;59274;49.874;9.154;2022-12-07T05:41:22;16.10;;;5.97;;
71464;SDS011;59274;49.874;9.154;2022-12-07T05:44:06;13.63;;;5.95;;
71464;SDS011;59274;49.874;9.154;2022-12-07T05:46:32;17.42;;;7.63;;
71464;SDS011;59274;49.874;9.154;2022-12-07T05:48:57;18.35;;;7.57;;
71464;SDS011;59274;49.874;9.154;2022-12-07T05:51:23;16.08;;;7.63;;
71464;SDS011;59274;49.874;9.154;2022-12-07T05:53:49;16.83;;;7.43;;
71464;SDS011;59274;49.874;9.154;2022-12-07T05:56:14;13.87;;;6.27;;
71464;SDS011;59274;49.874;9.154;2022-12-07T05:58:40;13.98;;;5.88;;
71464;SDS011;59274;49.874;9.154;2022-12-07T06:01:24;13.43;;;5.77;;
71464;SDS011;59274;49.874;9.154;2022-12-07T06:03:50;13.52;;;5.75;;
71464;SDS011;59274;49.874;9.154;2022-12-07T06:06:15;13.50;;;5.80;;
71464;SDS011;59274;49.874;9.154;2022-12-07T06:08:40;13.87;;;5.73;;
71464;SDS011;59274;49.874;9.154;2022-12-07T06:11:06;13.52;;;5.85;;
71464;SDS011;59274;49.874;9.154;2022-12-07T06:13:50;12.50;;;6.17;;
71464;SDS011;59274;49.874;9.154;2022-12-07T06:16:15;14.32;;;5.50;;
71464;SDS011;59274;49.874;9.154;2022-12-07T06:18:41;15.23;;;6.50;;
71464;SDS011;59274;49.874;9.154;2022-12-07T06:21:06;13.17;;;5.93;;
71464;SDS011;59274;49.874;9.154;2022-12-07T06:23:31;15.27;;;6.00;;
71464;SDS011;59274;49.874;9.154;2022-12-07T06:25:57;14.60;;;6.07;;
71464;SDS011;59274;49.874;9.154;2022-12-07T06:28:22;13.00;;;5.75;;
71464;SDS011;59274;49.874;9.154;2022-12-07T06:30:56;13.48;;;5.30;;
71464;SDS011;59274;49.874;9.154;2022-12-07T06:33:22;27.10;;;11.67;;
71464;SDS011;59274;49.874;9.154;2022-12-07T06:35:47;17.67;;;7.53;;
71464;SDS011;59274;49.874;9.154;2022-12-07T06:38:12;13.90;;;6.20;;
71464;SDS011;59274;49.874;9.154;2022-12-07T06:40:38;12.03;;;5.67;;
71464;SDS011;59274;49.874;9.154;2022-12-07T06:43:03;14.07;;;6.20;;
71464;SDS011;59274;49.874;9.154;2022-12-07T06:45:29;13.70;;;5.80;;
71464;SDS011;59274;49.874;9.154;2022-12-07T06:47:54;17.02;;;6.97;;
71464;SDS011;59274;49.874;9.154;2022-12-07T06:50:19;13.15;;;6.18;;
71464;SDS011;59274;49.874;9.154;2022-12-07T06:52:45;14.23;;;6.37;;
71464;SDS011;59274;49.874;9.154;2022-12-07T06:55:10;14.70;;;6.10;;
71464;SDS011;59274;49.874;9.154;2022-12-07T06:57:36;13.47;;;5.90;;
71464;SDS011;59274;49.874;9.154;2022-12-07T07:00:02;13.90;;;5.93;;
71464;SDS011;59274;49.874;9.154;2022-12-07T07:02:28;12.20;;;5.30;;
71464;SDS011;59274;49.874;9.154;2022-12-07T07:04:54;11.97;;;5.17;;
71464;SDS011;59274;49.874;9.154;2022-12-07T07:07:19;13.02;;;5.45;;
71464;SDS011;59274;49.874;9.154;2022-12-07T07:09:45;13.55;;;5.63;;
71464;SDS011;59274;49.874;9.154;2022-12-07T07:12:13;13.93;;;5.47;;
71464;SDS011;59274;49.874;9.154;2022-12-07T07:14:38;15.35;;;5.85;;
71464;SDS011;59274;49.874;9.154;2022-12-07T07:17:04;13.10;;;5.63;;
71464;SDS011;59274;49.874;9.154;2022-12-07T07:19:29;13.10;;;5.87;;
71464;SDS011;59274;49.874;9.154;2022-12-07T07:21:54;13.93;;;5.77;;
71464;SDS011;59274;49.874;9.154;2022-12-07T07:24:20;13.23;;;5.87;;
71464;SDS011;59274;49.874;9.154;2022-12-07T07:26:45;13.07;;;5.32;;
71464;SDS011;59274;49.874;9.154;2022-12-07T07:29:11;16.83;;;5.97;;
71464;SDS011;59274;49.874;9.154;2022-12-07T07:31:36;14.43;;;6.20;;
71464;SDS011;59274;49.874;9.154;2022-12-07T07:34:02;14.77;;;6.03;;
71464;SDS011;59274;49.874;9.154;2022-12-07T07:36:27;14.65;;;5.57;;
71464;SDS011;59274;49.874;9.154;2022-12-07T07:38:53;12.90;;;5.17;;
71464;SDS011;59274;49.874;9.154;2022-12-07T07:41:18;14.33;;;5.43;;
71464;SDS011;59274;49.874;9.154;2022-12-07T07:43:43;15.57;;;6.53;;
71464;SDS011;59274;49.874;9.154;2022-12-07T07:46:09;16.87;;;7.07;;
71464;SDS011;59274;49.874;9.154;2022-12-07T07:48:35;17.75;;;7.38;;
71464;SDS011;59274;49.874;9.154;2022-12-07T07:51:04;15.43;;;6.40;;
71464;SDS011;59274;49.874;9.154;2022-12-07T07:53:31;13.98;;;6.50;;
71464;SDS011;59274;49.874;9.154;2022-12-07T07:55:56;14.23;;;5.57;;
71464;SDS011;59274;49.874;9.154;2022-12-07T07:58:21;12.40;;;5.80;;
71464;SDS011;59274;49.874;9.154;2022-12-07T08:00:47;13.15;;;5.85;;
71464;SDS011;59274;49.874;9.154;2022-12-07T08:03:12;14.63;;;5.87;;
71464;SDS011;59274;49.874;9.154;2022-12-07T08:05:38;14.10;;;6.33;;
71464;SDS011;59274;49.874;9.154;2022-12-07T08:08:03;14.63;;;6.13;;
71464;SDS011;59274;49.874;9.154;2022-12-07T08:10:29;13.57;;;6.03;;
71464;SDS011;59274;49.874;9.154;2022-12-07T08:12:57;13.00;;;6.25;;
71464;SDS011;59274;49.874;9.154;2022-12-07T08:15:42;13.45;;;6.07;;
71464;SDS011;59274;49.874;9.154;2022-12-07T08:18:09;13.30;;;6.10;;
71464;SDS011;59274;49.874;9.154;2022-12-07T08:20:36;13.73;;;6.20;;
71464;SDS011;59274;49.874;9.154;2022-12-07T08:23:02;14.52;;;6.07;;
71464;SDS011;59274;49.874;9.154;2022-12-07T08:25:28;13.47;;;5.93;;
71464;SDS011;59274;49.874;9.154;2022-12-07T08:27:54;13.82;;;6.22;;
71464;SDS011;59274;49.874;9.154;2022-12-07T08:30:19;16.03;;;6.00;;
71464;SDS011;59274;49.874;9.154;2022-12-07T08:32:45;15.40;;;6.55;;
71464;SDS011;59274;49.874;9.154;2022-12-07T08:35:11;14.88;;;6.70;;
71464;SDS011;59274;49.874;9.154;2022-12-07T08:37:38;12.57;;;5.97;;
71464;SDS011;59274;49.874;9.154;2022-12-07T08:40:04;15.18;;;5.88;;
71464;SDS011;59274;49.874;9.154;2022-12-07T08:42:30;14.32;;;6.22;;
71464;SDS011;59274;49.874;9.154;2022-12-07T08:45:03;14.40;;;5.88;;
71464;SDS011;59274;49.874;9.154;2022-12-07T08:47:30;15.10;;;6.00;;
71464;SDS011;59274;49.874;9.154;2022-12-07T08:49:56;14.40;;;5.72;;
71464;SDS011;59274;49.874;9.154;2022-12-07T08:52:21;13.13;;;5.73;;
71464;SDS011;59274;49.874;9.154;2022-12-07T08:54:47;14.32;;;6.57;;
71464;SDS011;59274;49.874;9.154;2022-12-07T08:57:13;13.30;;;5.83;;
71464;SDS011;59274;49.874;9.154;2022-12-07T08:59:39;13.85;;;5.70;;
71464;SDS011;59274;49.874;9.154;2022-12-07T09:02:05;13.27;;;5.33;;
71464;SDS011;59274;49.874;9.154;2022-12-07T09:04:31;13.25;;;5.82;;
71464;SDS011;59274;49.874;9.154;2022-12-07T09:06:56;14.35;;;5.78;;
71464;SDS011;59274;49.874;9.154;2022-12-07T09:09:22;12.03;;;5.07;;
71464;SDS011;59274;49.874;9.154;2022-12-07T09:11:48;13.25;;;5.55;;
71464;SDS011;59274;49.874;9.154;2022-12-07T09:14:13;12.45;;;5.57;;
71464;SDS011;59274;49.874;9.154;2022-12-07T09:16:39;11.73;;;5.80;;
71464;SDS011;59274;49.874;9.154;2022-12-07T09:19:05;11.50;;;5.60;;
71464;SDS011;59274;49.874;9.154;2022-12-07T09:21:30;12.27;;;5.77;;
71464;SDS011;59274;49.874;9.154;2022-12-07T09:23:56;12.43;;;5.40;;
71464;SDS011;59274;49.874;9.154;2022-12-07T09:26:21;11.07;;;4.93;;
71464;SDS011;59274;49.874;9.154;2022-12-07T09:28:47;11.33;;;5.37;;
71464;SDS011;59274;49.874;9.154;2022-12-07T09:31:12;11.30;;;5.10;;
71464;SDS011;59274;49.874;9.154;2022-12-07T09:33:37;12.27;;;5.40;;
71464;SDS011;59274;49.874;9.154;2022-12-07T09:36:03;11.73;;;4.95;;
71464;SDS011;59274;49.874;9.154;2022-12-07T09:38:30;12.98;;;5.70;;
71464;SDS011;59274;49.874;9.154;2022-12-07T09:40:57;14.30;;;5.40;;
71464;SDS011;59274;49.874;9.154;2022-12-07T09:43:33;10.13;;;4.70;;
71464;SDS011;59274;49.874;9.154;2022-12-07T09:46:00;11.27;;;5.00;;
71464;SDS011;59274;49.874;9.154;2022-12-07T09:48:29;11.55;;;4.60;;
71464;SDS011;59274;49.874;9.154;2022-12-07T09:50:57;14.60;;;4.70;;
71464;SDS011;59274;49.874;9.154;2022-12-07T09:53:30;11.77;;;4.70;;
71464;SDS011;59274;49.874;9.154;2022-12-07T09:55:59;10.93;;;4.65;;
71464;SDS011;59274;49.874;9.154;2022-12-07T09:58:26;12.05;;;4.88;;
71464;SDS011;59274;49.874;9.154;2022-12-07T10:00:53;13.60;;;4.82;;
71464;SDS011;59274;49.874;9.154;2022-12-07T10:03:22;10.50;;;5.03;;
71464;SDS011;59274;49.874;9.154;2022-12-07T10:05:53;11.35;;;4.82;;
71464;SDS011;59274;49.874;9.154;2022-12-07T10:08:19;9.80;;;4.13;;
71464;SDS011;59274;49.874;9.154;2022-12-07T10:10:46;12.02;;;5.28;;
71464;SDS011;59274;49.874;9.154;2022-12-07T10:13:19;12.40;;;5.83;;
71464;SDS011;59274;49.874;9.154;2022-12-07T10:15:53;9.75;;;4.40;;
71464;SDS011;59274;49.874;9.154;2022-12-07T10:21:00;9.65;;;4.05;;
71464;SDS011;59274;49.874;9.154;2022-12-07T10:23:27;11.55;;;4.20;;
71464;SDS011;59274;49.874;9.154;2022-12-07T10:25:52;11.77;;;4.00;;
71464;SDS011;59274;49.874;9.154;2022-12-07T10:28:20;9.82;;;4.30;;
71464;SDS011;59274;49.874;9.154;2022-12-07T10:30:51;10.47;;;3.57;;
71464;SDS011;59274;49.874;9.154;2022-12-07T10:33:37;10.85;;;3.80;;
71464;SDS011;59274;49.874;9.154;2022-12-07T10:36:21;9.88;;;3.88;;
71464;SDS011;59274;49.874;9.154;2022-12-07T10:38:53;10.25;;;3.63;;
71464;SDS011;59274;49.874;9.154;2022-12-07T10:41:25;9.27;;;3.80;;
71464;SDS011;59274;49.874;9.154;2022-12-07T10:43:55;9.37;;;3.70;;
71464;SDS011;59274;49.874;9.154;2022-12-07T10:55:10;9.00;;;3.60;;
71464;SDS011;59274;49.874;9.154;2022-12-07T11:00:19;8.98;;;4.03;;
71464;SDS011;59274;49.874;9.154;2022-12-07T11:03:00;10.05;;;4.00;;
71464;SDS011;59274;49.874;9.154;2022-12-07T11:06:10;10.20;;;4.00;;
71464;SDS011;59274;49.874;9.154;2022-12-07T11:08:53;13.40;;;4.30;;
71464;SDS011;59274;49.874;9.154;2022-12-07T11:14:40;34.28;;;10.10;;
71464;SDS011;59274;49.874;9.154;2022-12-07T11:17:25;26.05;;;8.45;;
71464;SDS011;59274;49.874;9.154;2022-12-07T11:25:36;18.85;;;8.30;;
71464;SDS011;59274;49.874;9.154;2022-12-07T11:34:06;10.48;;;4.15;;
71464;SDS011;59274;49.874;9.154;2022-12-07T11:38:53;13.60;;;5.93;;
71464;SDS011;59274;49.874;9.154;2022-12-07T11:41:23;12.07;;;4.65;;
71464;SDS011;59274;49.874;9.154;2022-12-07T11:44:05;9.65;;;4.30;;
71464;SDS011;59274;49.874;9.154;2022-12-07T11:47:17;10.73;;;4.63;;
71464;SDS011;59274;49.874;9.154;2022-12-07T11:52:09;9.25;;;4.45;;
71464;SDS011;59274;49.874;9.154;2022-12-07T11:55:00;11.38;;;4.25;;
71464;SDS011;59274;49.874;9.154;2022-12-07T11:57:37;9.30;;;3.97;;
71464;SDS011;59274;49.874;9.154;2022-12-07T12:00:14;9.45;;;4.05;;
71464;SDS011;59274;49.874;9.154;2022-12-07T12:07:44;9.35;;;3.83;;
71464;SDS011;59274;49.874;9.154;2022-12-07T12:10:30;9.10;;;3.63;;
71464;SDS011;59274;49.874;9.154;2022-12-07T12:13:10;11.52;;;4.10;;
71464;SDS011;59274;49.874;9.154;2022-12-07T12:20:55;9.70;;;3.70;;
71464;SDS011;59274;49.874;9.154;2022-12-07T12:26:21;8.63;;;3.67;;
71464;SDS011;59274;49.874;9.154;2022-12-07T12:33:53;10.57;;;3.70;;
71464;SDS011;59274;49.874;9.154;2022-12-07T12:39:12;9.02;;;3.45;;
71464;SDS011;59274;49.874;9.154;2022-12-07T12:51:45;9.43;;;3.67;;
71464;SDS011;59274;49.874;9.154;2022-12-07T12:59:39;9.40;;;3.40;;
71464;SDS011;59274;49.874;9.154;2022-12-07T13:02:16;8.30;;;3.78;;
71464;SDS011;59274;49.874;9.154;2022-12-07T13:15:41;10.80;;;4.20;;
71464;SDS011;59274;49.874;9.154;2022-12-07T13:28:37;9.52;;;3.50;;
71464;SDS011;59274;49.874;9.154;2022-12-07T13:31:11;8.32;;;3.30;;
71464;SDS011;59274;49.874;9.154;2022-12-07T13:33:42;10.98;;;3.63;;
71464;SDS011;59274;49.874;9.154;2022-12-07T13:36:20;8.38;;;3.40;;
71464;SDS011;59274;49.874;9.154;2022-12-07T13:41:41;8.48;;;3.33;;
71464;SDS011;59274;49.874;9.154;2022-12-07T13:44:11;9.75;;;3.58;;
71464;SDS011;59274;49.874;9.154;2022-12-07T13:49:20;8.02;;;2.85;;
71464;SDS011;59274;49.874;9.154;2022-12-07T13:51:46;7.90;;;3.23;;
71464;SDS011;59274;49.874;9.154;2022-12-07T13:54:12;10.32;;;4.25;;
71464;SDS011;59274;49.874;9.154;2022-12-07T13:56:39;13.77;;;4.60;;
71464;SDS011;59274;49.874;9.154;2022-12-07T13:59:05;13.23;;;6.60;;
71464;SDS011;59274;49.874;9.154;2022-12-07T14:01:55;10.33;;;3.23;;
71464;SDS011;59274;49.874;9.154;2022-12-07T14:06:55;9.65;;;3.25;;
71464;SDS011;59274;49.874;9.154;2022-12-07T14:09:24;8.20;;;2.93;;
71464;SDS011;59274;49.874;9.154;2022-12-07T14:11:55;7.70;;;3.15;;
71464;SDS011;59274;49.874;9.154;2022-12-07T14:14:23;8.50;;;3.40;;
71464;SDS011;59274;49.874;9.154;2022-12-07T14:17:11;8.00;;;2.80;;
71464;SDS011;59274;49.874;9.154;2022-12-07T14:24:45;8.13;;;2.80;;
71464;SDS011;59274;49.874;9.154;2022-12-07T14:27:21;10.98;;;2.97;;
71464;SDS011;59274;49.874;9.154;2022-12-07T14:29:50;8.50;;;3.10;;
71464;SDS011;59274;49.874;9.154;2022-12-07T14:37:33;7.82;;;2.67;;
71464;SDS011;59274;49.874;9.154;2022-12-07T14:39:58;7.63;;;2.80;;
71464;SDS011;59274;49.874;9.154;2022-12-07T14:42:24;6.50;;;2.80;;
71464;SDS011;59274;49.874;9.154;2022-12-07T14:44:53;8.20;;;2.63;;
71464;SDS011;59274;49.874;9.154;2022-12-07T14:47:19;8.25;;;2.60;;
71464;SDS011;59274;49.874;9.154;2022-12-07T14:49:45;6.80;;;2.53;;
71464;SDS011;59274;49.874;9.154;2022-12-07T14:52:14;7.95;;;2.70;;
71464;SDS011;59274;49.874;9.154;2022-12-07T14:54:49;6.70;;;2.30;;
71464;SDS011;59274;49.874;9.154;2022-12-07T14:57:15;8.27;;;2.50;;
71464;SDS011;59274;49.874;9.154;2022-12-07T14:59:40;9.17;;;2.50;;
71464;SDS011;59274;49.874;9.154;2022-12-07T15:02:06;7.23;;;2.53;;
71464;SDS011;59274;49.874;9.154;2022-12-07T15:04:34;7.35;;;1.95;;
71464;SDS011;59274;49.874;9.154;2022-12-07T15:07:01;5.73;;;2.13;;
71464;SDS011;59274;49.874;9.154;2022-12-07T15:09:29;7.10;;;2.40;;
71464;SDS011;59274;49.874;9.154;2022-12-07T15:11:55;10.30;;;2.22;;
71464;SDS011;59274;49.874;9.154;2022-12-07T15:14:20;5.73;;;1.90;;
71464;SDS011;59274;49.874;9.154;2022-12-07T15:16:46;8.50;;;1.93;;
71464;SDS011;59274;49.874;9.154;2022-12-07T15:19:15;5.73;;;2.00;;
71464;SDS011;59274;49.874;9.154;2022-12-07T15:21:43;5.50;;;2.00;;
71464;SDS011;59274;49.874;9.154;2022-12-07T15:24:10;7.35;;;2.47;;
71464;SDS011;59274;49.874;9.154;2022-12-07T15:26:37;6.15;;;2.35;;
71464;SDS011;59274;49.874;9.154;2022-12-07T15:29:03;6.57;;;2.20;;
71464;SDS011;59274;49.874;9.154;2022-12-07T15:31:29;11.27;;;3.00;;
71464;SDS011;59274;49.874;9.154;2022-12-07T15:33:54;7.65;;;2.63;;
71464;SDS011;59274;49.874;9.154;2022-12-07T15:36:21;8.00;;;2.63;;
71464;SDS011;59274;49.874;9.154;2022-12-07T15:38:49;6.32;;;2.80;;
71464;SDS011;59274;49.874;9.154;2022-12-07T15:41:15;6.63;;;2.30;;
71464;SDS011;59274;49.874;9.154;2022-12-07T15:43:41;8.95;;;2.58;;
71464;SDS011;59274;49.874;9.154;2022-12-07T15:46:35;7.13;;;2.60;;
71464;SDS011;59274;49.874;9.154;2022-12-07T15:49:02;7.05;;;2.33;;
71464;SDS011;59274;49.874;9.154;2022-12-07T15:51:29;8.10;;;2.60;;
71464;SDS011;59274;49.874;9.154;2022-12-07T15:53:54;9.50;;;2.93;;
71464;SDS011;59274;49.874;9.154;2022-12-07T15:56:20;8.07;;;2.40;;
71464;SDS011;59274;49.874;9.154;2022-12-07T15:58:45;8.93;;;2.40;;
71464;SDS011;59274;49.874;9.154;2022-12-07T16:01:12;7.32;;;2.22;;
71464;SDS011;59274;49.874;9.154;2022-12-07T16:03:41;6.30;;;2.42;;
71464;SDS011;59274;49.874;9.154;2022-12-07T16:06:07;6.03;;;2.35;;
71464;SDS011;59274;49.874;9.154;2022-12-07T16:08:32;7.20;;;2.53;;
71464;SDS011;59274;49.874;9.154;2022-12-07T16:10:58;7.35;;;2.30;;
71464;SDS011;59274;49.874;9.154;2022-12-07T16:13:24;8.13;;;2.60;;
71464;SDS011;59274;49.874;9.154;2022-12-07T16:15:49;9.77;;;2.97;;
71464;SDS011;59274;49.874;9.154;2022-12-07T16:18:14;7.95;;;2.95;;
71464;SDS011;59274;49.874;9.154;2022-12-07T16:20:40;8.97;;;2.87;;
71464;SDS011;59274;49.874;9.154;2022-12-07T16:23:06;8.73;;;3.07;;
71464;SDS011;59274;49.874;9.154;2022-12-07T16:25:32;10.18;;;3.08;;
71464;SDS011;59274;49.874;9.154;2022-12-07T16:27:58;8.10;;;2.78;;
71464;SDS011;59274;49.874;9.154;2022-12-07T16:30:23;8.95;;;3.20;;
71464;SDS011;59274;49.874;9.154;2022-12-07T16:32:50;9.05;;;3.00;;
71464;SDS011;59274;49.874;9.154;2022-12-07T16:35:16;8.10;;;2.85;;
71464;SDS011;59274;49.874;9.154;2022-12-07T16:37:42;14.30;;;5.95;;
71464;SDS011;59274;49.874;9.154;2022-12-07T16:40:07;8.07;;;3.23;;
71464;SDS011;59274;49.874;9.154;2022-12-07T16:42:34;8.15;;;3.72;;
71464;SDS011;59274;49.874;9.154;2022-12-07T16:45:00;10.80;;;4.38;;
71464;SDS011;59274;49.874;9.154;2022-12-07T16:47:28;10.10;;;3.67;;
71464;SDS011;59274;49.874;9.154;2022-12-07T16:49:54;11.60;;;4.90;;
71464;SDS011;59274;49.874;9.154;2022-12-07T16:52:19;9.35;;;4.15;;
71464;SDS011;59274;49.874;9.154;2022-12-07T16:54:45;11.20;;;4.17;;
71464;SDS011;59274;49.874;9.154;2022-12-07T16:57:12;9.00;;;4.00;;
71464;SDS011;59274;49.874;9.154;2022-12-07T16:59:37;6.87;;;2.83;;